createdAt,value
2023-05-22T00:01:46.854Z,19.26
2023-05-22T00:04:21.088Z,19.25
2023-05-22T00:06:49.417Z,19.26
2023-05-22T00:09:16.742Z,19.25
2023-05-22T00:11:44.333Z,19.25
2023-05-22T00:14:13.442Z,19.25
2023-05-22T00:16:41.666Z,19.24
2023-05-22T00:19:13.456Z,19.22
2023-05-22T00:21:41.316Z,19.23
2023-05-22T00:24:09.594Z,19.22
2023-05-22T00:26:37.181Z,19.21
2023-05-22T00:29:05.919Z,19.21
2023-05-22T00:31:33.804Z,19.19
2023-05-22T00:34:01.291Z,19.20
2023-05-22T00:36:29.473Z,19.20
2023-05-22T00:38:56.836Z,19.19
2023-05-22T00:41:24.645Z,19.18
2023-05-22T00:43:51.975Z,19.19
2023-05-22T00:46:21.577Z,19.19
2023-05-22T00:48:49.253Z,19.17
2023-05-22T00:51:16.959Z,19.17
2023-05-22T00:53:46.029Z,19.16
2023-05-22T00:56:15.788Z,19.16
2023-05-22T00:58:43.082Z,19.15
2023-05-22T01:01:11.337Z,19.16
2023-05-22T01:03:44.640Z,19.15
2023-05-22T01:06:14.602Z,19.14
2023-05-22T01:08:42.396Z,19.13
2023-05-22T01:11:12.843Z,19.13
2023-05-22T01:13:46.241Z,19.12
2023-05-22T01:16:46.816Z,19.13
2023-05-22T01:19:51.326Z,19.13
2023-05-22T01:22:30.918Z,19.12
2023-05-22T01:25:26.584Z,19.11
2023-05-22T01:28:22.110Z,19.11
2023-05-22T01:31:29.926Z,19.10
2023-05-22T01:34:00.926Z,19.09
2023-05-22T01:36:34.999Z,19.09
2023-05-22T01:39:06.057Z,19.08
2023-05-22T01:41:34.209Z,19.07
2023-05-22T01:44:02.271Z,19.07
2023-05-22T01:46:30.557Z,19.08
2023-05-22T01:48:58.917Z,19.06
2023-05-22T01:51:57.519Z,19.06
2023-05-22T01:54:36.077Z,19.05
2023-05-22T01:57:17.172Z,19.05
2023-05-22T01:59:49.750Z,19.04
2023-05-22T02:02:19.735Z,19.03
2023-05-22T02:04:53.237Z,19.03
2023-05-22T02:07:22.865Z,19.03
2023-05-22T02:09:51.906Z,19.02
2023-05-22T02:12:20.050Z,19.02
2023-05-22T02:14:48.005Z,19.00
2023-05-22T02:17:18.132Z,19.01
2023-05-22T02:19:45.866Z,19.00
2023-05-22T02:22:16.110Z,19.00
2023-05-22T02:24:47.859Z,18.99
2023-05-22T02:27:15.147Z,19.00
2023-05-22T02:29:42.728Z,18.98
2023-05-22T02:32:10.039Z,18.98
2023-05-22T02:34:37.986Z,18.97
2023-05-22T02:37:05.580Z,18.97
2023-05-22T02:39:33.120Z,18.97
2023-05-22T02:42:00.820Z,18.96
2023-05-22T02:44:28.380Z,18.95
2023-05-22T02:46:55.983Z,18.95
2023-05-22T02:49:23.660Z,18.94
2023-05-22T02:51:52.284Z,18.94
2023-05-22T02:54:19.857Z,18.94
2023-05-22T02:56:47.161Z,18.94
2023-05-22T02:59:14.698Z,18.94
2023-05-22T03:01:42.212Z,18.93
2023-05-22T03:04:10.075Z,18.92
2023-05-22T03:06:38.304Z,18.91
2023-05-22T03:09:05.943Z,18.90
2023-05-22T03:11:33.235Z,18.91
2023-05-22T03:14:00.900Z,18.90
2023-05-22T03:16:28.342Z,18.90
2023-05-22T03:19:12.434Z,18.90
2023-05-22T03:21:40.736Z,18.90
2023-05-22T03:24:08.508Z,18.89
2023-05-22T03:26:35.844Z,18.90
2023-05-22T03:29:03.436Z,18.90
2023-05-22T03:31:32.571Z,18.90
2023-05-22T03:34:00.852Z,18.90
2023-05-22T03:36:29.509Z,18.90
2023-05-22T03:38:58.707Z,18.91
2023-05-22T03:41:26.301Z,18.92
2023-05-22T03:43:53.924Z,18.92
2023-05-22T03:46:21.824Z,18.93
2023-05-22T03:48:49.447Z,18.93
2023-05-22T03:51:19.293Z,18.94
2023-05-22T03:53:47.807Z,18.95
2023-05-22T03:56:15.164Z,18.95
2023-05-22T03:58:42.767Z,18.95
2023-05-22T04:01:11.233Z,18.96
2023-05-22T04:03:38.829Z,18.95
2023-05-22T04:06:07.499Z,18.96
2023-05-22T04:08:35.142Z,18.96
2023-05-22T04:11:03.161Z,18.97
2023-05-22T04:13:31.540Z,18.97
2023-05-22T04:15:58.947Z,18.97
2023-05-22T04:18:26.495Z,18.97
2023-05-22T04:20:53.847Z,18.98
2023-05-22T04:23:21.489Z,18.98
2023-05-22T04:25:49.493Z,18.98
2023-05-22T04:28:17.619Z,18.99
2023-05-22T04:30:45.084Z,18.98
2023-05-22T04:33:13.890Z,18.98
2023-05-22T04:35:42.315Z,18.99
2023-05-22T04:38:10.533Z,18.99
2023-05-22T04:40:38.035Z,18.99
2023-05-22T04:43:06.163Z,19.00
2023-05-22T04:45:33.577Z,19.00
2023-05-22T04:48:02.490Z,19.01
2023-05-22T04:50:33.057Z,19.01
2023-05-22T04:53:04.209Z,19.02
2023-05-22T04:55:34.846Z,19.02
2023-05-22T04:58:02.893Z,19.03
2023-05-22T05:00:30.483Z,19.04
2023-05-22T05:03:00.452Z,19.05
2023-05-22T05:05:27.952Z,19.06
2023-05-22T05:07:55.708Z,19.09
2023-05-22T05:10:23.055Z,19.11
2023-05-22T05:12:50.850Z,19.15
2023-05-22T05:15:18.258Z,19.20
2023-05-22T05:17:46.325Z,19.23
2023-05-22T05:20:14.682Z,19.26
2023-05-22T05:22:44.024Z,19.30
2023-05-22T05:25:11.913Z,19.31
2023-05-22T05:27:40.097Z,19.35
2023-05-22T05:30:07.945Z,19.36
2023-05-22T05:32:35.927Z,19.37
2023-05-22T05:35:03.460Z,19.37
2023-05-22T05:37:31.026Z,19.36
2023-05-22T05:39:58.348Z,19.34
2023-05-22T05:42:26.023Z,19.31
2023-05-22T05:44:53.354Z,19.31
2023-05-22T05:47:24.049Z,19.30
2023-05-22T05:49:51.642Z,19.29
2023-05-22T05:52:19.265Z,19.28
2023-05-22T05:54:48.071Z,19.26
2023-05-22T05:57:15.735Z,19.24
2023-05-22T05:59:43.040Z,19.24
2023-05-22T06:02:10.612Z,19.25
2023-05-22T06:04:38.180Z,19.24
2023-05-22T06:07:06.310Z,19.23
2023-05-22T06:09:33.656Z,19.23
2023-05-22T06:12:01.483Z,19.24
2023-05-22T06:14:28.894Z,19.24
2023-05-22T06:16:56.671Z,19.24
2023-05-22T06:19:24.091Z,19.25
2023-05-22T06:21:52.222Z,19.26
2023-05-22T06:24:19.743Z,19.26
2023-05-22T06:26:47.289Z,19.26
2023-05-22T06:29:14.548Z,19.27
2023-05-22T06:31:42.199Z,19.26
2023-05-22T06:34:09.640Z,19.27
2023-05-22T06:36:37.492Z,19.28
2023-05-22T06:39:04.914Z,19.30
2023-05-22T06:41:33.577Z,19.30
2023-05-22T06:44:02.183Z,19.32
2023-05-22T06:46:29.919Z,19.31
2023-05-22T06:48:57.302Z,19.32
2023-05-22T06:51:25.614Z,19.33
2023-05-22T06:53:52.971Z,19.33
2023-05-22T06:56:20.621Z,19.35
2023-05-22T06:58:48.300Z,19.36
2023-05-22T07:01:16.332Z,19.37
2023-05-22T07:03:43.622Z,19.38
2023-05-22T07:06:12.278Z,19.39
2023-05-22T07:08:39.680Z,19.39
2023-05-22T07:11:08.652Z,19.41
2023-05-22T07:13:36.516Z,19.43
2023-05-22T07:16:04.209Z,19.42
2023-05-22T07:18:31.600Z,19.44
2023-05-22T07:20:59.240Z,19.45
2023-05-22T07:23:26.543Z,19.45
2023-05-22T07:25:54.209Z,19.46
2023-05-22T07:28:21.503Z,19.47
2023-05-22T07:30:49.085Z,19.47
2023-05-22T07:33:16.537Z,19.48
2023-05-22T07:35:45.604Z,19.49
2023-05-22T07:38:12.923Z,19.51
2023-05-22T07:40:40.780Z,19.51
2023-05-22T07:43:08.334Z,19.52
2023-05-22T07:45:36.060Z,19.55
2023-05-22T07:48:04.384Z,19.55
2023-05-22T07:50:33.373Z,19.55
2023-05-22T07:53:01.153Z,19.54
2023-05-22T07:55:28.716Z,19.56
2023-05-22T07:57:56.395Z,19.56
2023-05-22T08:00:25.288Z,19.57
2023-05-22T08:02:52.773Z,19.58
2023-05-22T08:05:20.795Z,19.58
2023-05-22T08:07:48.492Z,19.60
2023-05-22T08:10:17.499Z,19.61
2023-05-22T08:12:45.204Z,19.61
2023-05-22T08:15:13.238Z,19.61
2023-05-22T08:17:40.722Z,19.62
2023-05-22T08:20:09.396Z,19.64
2023-05-22T08:22:39.006Z,19.63
2023-05-22T08:25:07.085Z,19.65
2023-05-22T08:27:34.393Z,19.65
2023-05-22T08:30:04.349Z,19.67
2023-05-22T08:32:31.972Z,19.67
2023-05-22T08:34:59.619Z,19.69
2023-05-22T08:37:27.185Z,19.69
2023-05-22T08:39:54.722Z,19.70
2023-05-22T08:42:22.094Z,19.71
2023-05-22T08:44:50.157Z,19.73
2023-05-22T08:47:19.087Z,19.73
2023-05-22T08:49:51.963Z,19.75
2023-05-22T08:52:23.177Z,19.76
2023-05-22T08:54:54.344Z,19.77
2023-05-22T08:57:23.048Z,19.77
2023-05-22T08:59:50.904Z,19.78
2023-05-22T09:02:18.477Z,19.79
2023-05-22T09:04:46.700Z,19.80
2023-05-22T09:07:14.550Z,19.80
2023-05-22T09:09:42.300Z,19.82
2023-05-22T09:12:10.761Z,19.83
2023-05-22T09:14:42.696Z,19.84
2023-05-22T09:17:14.651Z,19.86
2023-05-22T09:19:46.348Z,19.86
2023-05-22T09:22:14.165Z,19.86
2023-05-22T09:24:43.412Z,19.88
2023-05-22T09:27:11.886Z,19.89
2023-05-22T09:29:56.752Z,19.90
2023-05-22T09:32:24.526Z,19.90
2023-05-22T09:34:52.130Z,19.91
2023-05-22T09:37:19.432Z,19.94
2023-05-22T09:39:48.200Z,19.94
2023-05-22T09:42:17.486Z,19.96
2023-05-22T09:44:49.345Z,19.97
2023-05-22T09:47:17.250Z,19.97
2023-05-22T09:49:45.877Z,19.98
2023-05-22T09:52:13.202Z,20.00
2023-05-22T09:55:05.372Z,20.01
2023-05-22T09:57:38.009Z,20.02
2023-05-22T10:00:11.156Z,20.03
2023-05-22T10:02:44.217Z,20.04
2023-05-22T10:05:15.719Z,20.05
2023-05-22T10:07:51.087Z,20.06
2023-05-22T10:10:22.793Z,20.06
2023-05-22T10:13:00.096Z,20.08
2023-05-22T10:15:28.219Z,20.09
2023-05-22T10:17:56.822Z,20.09
2023-05-22T10:20:26.867Z,20.10
2023-05-22T10:22:55.574Z,20.11
2023-05-22T10:25:23.613Z,20.12
2023-05-22T10:27:55.805Z,20.13
2023-05-22T10:31:04.772Z,20.17
2023-05-22T10:33:40.951Z,20.18
2023-05-22T10:36:39.365Z,20.19
2023-05-22T10:39:28.448Z,20.20
2023-05-22T10:41:56.210Z,20.20
2023-05-22T10:44:23.825Z,20.20
2023-05-22T10:46:51.596Z,20.21
2023-05-22T10:49:26.664Z,20.21
2023-05-22T10:51:57.527Z,20.22
2023-05-22T10:54:59.637Z,20.22
2023-05-22T10:57:32.276Z,20.22
2023-05-22T11:00:11.542Z,20.23
2023-05-22T11:02:42.069Z,20.23
2023-05-22T11:05:19.479Z,20.24
2023-05-22T11:07:47.697Z,20.24
2023-05-22T11:10:15.061Z,20.26
2023-05-22T11:12:44.093Z,20.26
2023-05-22T11:15:11.774Z,20.27
2023-05-22T11:17:39.301Z,20.27
2023-05-22T11:20:24.292Z,20.29
2023-05-22T11:23:05.583Z,20.29
2023-05-22T11:25:34.927Z,20.31
2023-05-22T11:28:03.886Z,20.32
2023-05-22T11:30:31.812Z,20.32
2023-05-22T11:33:00.561Z,20.33
2023-05-22T11:35:28.875Z,20.34
2023-05-22T11:37:56.878Z,20.34
2023-05-22T11:40:26.966Z,20.36
2023-05-22T11:42:54.652Z,20.37
2023-05-22T11:45:22.235Z,20.37
2023-05-22T11:47:50.165Z,20.40
2023-05-22T11:50:29.419Z,20.41
2023-05-22T11:53:05.814Z,20.42
2023-05-22T11:55:33.385Z,20.43
2023-05-22T11:58:02.426Z,20.43
2023-05-22T12:00:31.565Z,20.45
2023-05-22T12:02:59.742Z,20.45
2023-05-22T12:05:27.251Z,20.47
2023-05-22T12:07:55.029Z,20.48
2023-05-22T12:10:22.465Z,20.48
2023-05-22T12:12:50.229Z,20.48
2023-05-22T12:15:21.170Z,20.49
2023-05-22T12:17:48.928Z,20.50
2023-05-22T12:20:16.358Z,20.52
2023-05-22T12:22:44.208Z,20.53
2023-05-22T12:25:17.308Z,20.55
2023-05-22T12:27:45.862Z,20.57
2023-05-22T12:30:14.182Z,20.59
2023-05-22T12:32:47.396Z,20.62
2023-05-22T12:35:17.159Z,20.64
2023-05-22T12:37:49.189Z,20.70
2023-05-22T12:40:16.806Z,20.78
2023-05-22T12:42:45.037Z,20.79
2023-05-22T12:45:13.496Z,20.74
2023-05-22T12:47:40.931Z,20.67
2023-05-22T12:50:08.911Z,20.63
2023-05-22T12:52:36.315Z,20.60
2023-05-22T12:55:04.553Z,20.57
2023-05-22T12:57:31.818Z,20.55
2023-05-22T12:59:59.519Z,20.52
2023-05-22T13:02:27.010Z,20.49
2023-05-22T13:04:54.648Z,20.48
2023-05-22T13:07:21.981Z,20.45
2023-05-22T13:09:49.477Z,20.43
2023-05-22T13:12:16.922Z,20.43
2023-05-22T13:14:44.563Z,20.45
2023-05-22T13:17:11.966Z,20.48
2023-05-22T13:19:39.645Z,20.49
2023-05-22T13:22:07.690Z,20.50
2023-05-22T13:24:35.705Z,20.53
2023-05-22T13:27:03.031Z,20.52
2023-05-22T13:29:30.841Z,20.55
2023-05-22T13:31:58.103Z,20.55
2023-05-22T13:34:25.665Z,20.57
2023-05-22T13:36:53.038Z,20.58
2023-05-22T13:39:20.865Z,20.60
2023-05-22T13:41:48.181Z,20.60
2023-05-22T13:44:16.226Z,20.61
2023-05-22T13:46:43.600Z,20.62
2023-05-22T13:49:11.240Z,20.63
2023-05-22T13:51:39.191Z,20.62
2023-05-22T13:54:06.758Z,20.63
2023-05-22T13:56:34.105Z,20.64
2023-05-22T13:59:01.676Z,20.62
2023-05-22T14:01:29.413Z,20.64
2023-05-22T14:03:57.041Z,20.64
2023-05-22T14:06:24.634Z,20.63
2023-05-22T14:08:52.231Z,20.62
2023-05-22T14:11:19.495Z,20.62
2023-05-22T14:13:47.447Z,20.62
2023-05-22T14:16:14.805Z,20.61
2023-05-22T14:18:42.395Z,20.62
2023-05-22T14:21:09.703Z,20.62
2023-05-22T14:23:37.211Z,20.63
2023-05-22T14:26:04.682Z,20.63
2023-05-22T14:28:32.455Z,20.63
2023-05-22T14:30:59.828Z,20.64
2023-05-22T14:33:27.471Z,20.64
2023-05-22T14:35:54.725Z,20.66
2023-05-22T14:38:22.838Z,20.67
2023-05-22T14:40:51.265Z,20.66
2023-05-22T14:43:18.971Z,20.67
2023-05-22T14:45:46.297Z,20.68
2023-05-22T14:48:13.845Z,20.68
2023-05-22T14:50:41.123Z,20.68
2023-05-22T14:53:08.677Z,20.69
2023-05-22T14:55:36.040Z,20.69
2023-05-22T14:58:03.659Z,20.68
2023-05-22T15:00:31.052Z,20.69
2023-05-22T15:02:58.775Z,20.68
2023-05-22T15:05:26.955Z,20.69
2023-05-22T15:07:58.393Z,20.68
2023-05-22T15:10:26.701Z,20.68
2023-05-22T15:12:54.520Z,20.68
2023-05-22T15:15:21.954Z,20.66
2023-05-22T15:17:49.677Z,20.64
2023-05-22T15:20:17.146Z,20.65
2023-05-22T15:22:44.717Z,20.65
2023-05-22T15:25:15.071Z,20.65
2023-05-22T15:27:43.028Z,20.63
2023-05-22T15:30:11.925Z,20.63
2023-05-22T15:32:39.739Z,20.62
2023-05-22T15:35:07.615Z,20.62
2023-05-22T15:37:36.485Z,20.63
2023-05-22T15:40:04.496Z,20.62
2023-05-22T15:42:32.382Z,20.61
2023-05-22T15:45:00.674Z,20.62
2023-05-22T15:47:29.563Z,20.63
2023-05-22T15:49:56.978Z,20.62
2023-05-22T15:52:24.842Z,20.62
2023-05-22T15:54:52.895Z,20.62
2023-05-22T15:57:21.107Z,20.62
2023-05-22T15:59:50.592Z,20.62
2023-05-22T16:02:18.768Z,20.62
2023-05-22T16:04:46.799Z,20.63
2023-05-22T16:07:15.063Z,20.63
2023-05-22T16:09:43.341Z,20.63
2023-05-22T16:12:11.300Z,20.62
2023-05-22T16:14:40.201Z,20.63
2023-05-22T16:17:09.300Z,20.62
2023-05-22T16:19:36.778Z,20.63
2023-05-22T16:22:04.822Z,20.63
2023-05-22T16:24:32.156Z,20.62
2023-05-22T16:27:00.268Z,20.64
2023-05-22T16:29:27.628Z,20.63
2023-05-22T16:31:56.731Z,20.63
2023-05-22T16:34:24.690Z,20.63
2023-05-22T16:36:52.306Z,20.63
2023-05-22T16:39:19.632Z,20.62
2023-05-22T16:41:47.284Z,20.62
2023-05-22T16:44:14.609Z,20.62
2023-05-22T16:46:42.403Z,20.61
2023-05-22T16:49:09.748Z,20.62
2023-05-22T16:51:37.327Z,20.61
2023-05-22T16:54:04.837Z,20.60
2023-05-22T16:56:34.068Z,20.59
2023-05-22T16:59:02.051Z,20.59
2023-05-22T17:01:30.170Z,20.58
2023-05-22T17:03:57.513Z,20.58
2023-05-22T17:06:25.166Z,20.57
2023-05-22T17:08:52.440Z,20.57
2023-05-22T17:11:19.987Z,20.57
2023-05-22T17:13:47.267Z,20.57
2023-05-22T17:16:14.868Z,20.55
2023-05-22T17:18:42.152Z,20.57
2023-05-22T17:21:09.688Z,20.55
2023-05-22T17:23:37.407Z,20.55
2023-05-22T17:26:05.493Z,20.53
2023-05-22T17:28:33.389Z,20.53
2023-05-22T17:31:01.014Z,20.52
2023-05-22T17:33:28.502Z,20.51
2023-05-22T17:35:56.302Z,20.50
2023-05-22T17:38:23.749Z,20.48
2023-05-22T17:40:53.564Z,20.47
2023-05-22T17:43:21.412Z,20.46
2023-05-22T17:45:51.480Z,20.45
2023-05-22T17:48:27.433Z,20.45
2023-05-22T17:50:55.843Z,20.44
2023-05-22T17:53:23.185Z,20.43
2023-05-22T17:55:52.453Z,20.41
2023-05-22T17:58:20.557Z,20.41
2023-05-22T18:00:49.068Z,20.41
2023-05-22T18:03:20.273Z,20.40
2023-05-22T18:05:49.164Z,20.38
2023-05-22T18:08:17.410Z,20.37
2023-05-22T18:10:45.550Z,20.36
2023-05-22T18:13:13.243Z,20.35
2023-05-22T18:15:41.092Z,20.34
2023-05-22T18:18:10.685Z,20.34
2023-05-22T18:20:40.027Z,20.33
2023-05-22T18:23:07.679Z,20.31
2023-05-22T18:25:35.458Z,20.31
2023-05-22T18:28:02.841Z,20.30
2023-05-22T18:30:30.484Z,20.30
2023-05-22T18:32:58.132Z,20.29
2023-05-22T18:35:26.040Z,20.28
2023-05-22T18:37:53.296Z,20.27
2023-05-22T18:40:20.855Z,20.27
2023-05-22T18:42:48.157Z,20.26
2023-05-22T18:45:15.837Z,20.25
2023-05-22T18:47:43.436Z,20.24
2023-05-22T18:50:11.572Z,20.25
2023-05-22T18:52:39.971Z,20.24
2023-05-22T18:55:07.918Z,20.23
2023-05-22T18:57:35.288Z,20.22
2023-05-22T19:00:03.389Z,20.22
2023-05-22T19:02:31.361Z,20.20
2023-05-22T19:04:59.427Z,20.20
2023-05-22T19:07:27.252Z,20.20
2023-05-22T19:09:55.163Z,20.19
2023-05-22T19:12:24.629Z,20.19
2023-05-22T19:14:52.554Z,20.19
2023-05-22T19:17:20.653Z,20.18
2023-05-22T19:19:48.510Z,20.18
2023-05-22T19:22:18.189Z,20.17
2023-05-22T19:24:45.916Z,20.17
2023-05-22T19:27:13.230Z,20.16
2023-05-22T19:29:41.855Z,20.16
2023-05-22T19:32:10.285Z,20.13
2023-05-22T19:34:37.846Z,20.13
2023-05-22T19:37:05.267Z,20.13
2023-05-22T19:39:33.192Z,20.13
2023-05-22T19:42:00.804Z,20.12
2023-05-22T19:44:28.574Z,20.12
2023-05-22T19:46:57.123Z,20.12
2023-05-22T19:49:24.671Z,20.10
2023-05-22T19:51:53.549Z,20.10
2023-05-22T19:54:23.083Z,20.09
2023-05-22T19:56:50.461Z,20.07
2023-05-22T19:59:18.088Z,20.07
2023-05-22T20:01:45.431Z,20.07
2023-05-22T20:04:13.189Z,20.07
2023-05-22T20:06:42.112Z,20.06
2023-05-22T20:09:09.957Z,20.05
2023-05-22T20:11:37.414Z,20.04
2023-05-22T20:14:05.147Z,20.03
2023-05-22T20:16:32.520Z,20.03
2023-05-22T20:19:00.360Z,20.03
2023-05-22T20:21:27.706Z,20.02
2023-05-22T20:23:55.610Z,20.02
2023-05-22T20:26:23.088Z,20.02
2023-05-22T20:28:50.849Z,20.01
2023-05-22T20:31:18.234Z,20.02
2023-05-22T20:33:46.041Z,20.01
2023-05-22T20:36:16.466Z,20.01
2023-05-22T20:38:44.014Z,20.01
2023-05-22T20:41:12.821Z,20.01
2023-05-22T20:43:43.337Z,20.00
2023-05-22T20:46:10.926Z,19.99
2023-05-22T20:48:46.743Z,19.99
2023-05-22T20:51:18.556Z,19.99
2023-05-22T20:53:51.426Z,19.99
2023-05-22T20:56:18.862Z,19.98
2023-05-22T20:58:46.545Z,19.98
2023-05-22T21:01:13.896Z,19.97
2023-05-22T21:03:41.521Z,19.96
2023-05-22T21:06:09.048Z,19.96
2023-05-22T21:08:36.642Z,19.95
2023-05-22T21:11:04.256Z,19.96
2023-05-22T21:13:31.866Z,19.94
2023-05-22T21:15:59.222Z,19.93
2023-05-22T21:18:27.255Z,19.93
2023-05-22T21:20:54.578Z,19.93
2023-05-22T21:23:24.504Z,19.92
2023-05-22T21:25:52.196Z,19.92
2023-05-22T21:28:19.856Z,19.92
2023-05-22T21:30:47.307Z,19.91
2023-05-22T21:33:15.200Z,19.90
2023-05-22T21:35:42.474Z,19.89
2023-05-22T21:38:10.057Z,19.89
2023-05-22T21:40:37.471Z,19.89
2023-05-22T21:43:05.291Z,19.89
2023-05-22T21:45:32.676Z,19.88
2023-05-22T21:48:00.442Z,19.87
2023-05-22T21:50:27.812Z,19.86
2023-05-22T21:52:55.684Z,19.86
2023-05-22T21:55:23.188Z,19.86
2023-05-22T21:57:50.862Z,19.86
2023-05-22T22:00:18.985Z,19.85
2023-05-22T22:02:46.711Z,19.84
2023-05-22T22:05:14.112Z,19.84
2023-05-22T22:07:41.637Z,19.84
2023-05-22T22:10:09.212Z,19.84
2023-05-22T22:12:36.778Z,19.84
2023-05-22T22:15:04.270Z,19.83
2023-05-22T22:17:31.843Z,19.82
2023-05-22T22:19:59.219Z,19.82
2023-05-22T22:22:26.934Z,19.81
2023-05-22T22:24:54.223Z,19.81
2023-05-22T22:27:21.803Z,19.80
2023-05-22T22:29:49.150Z,19.81
2023-05-22T22:32:16.930Z,19.80
2023-05-22T22:34:45.340Z,19.79
2023-05-22T22:37:13.991Z,19.79
2023-05-22T22:39:41.300Z,19.79
2023-05-22T22:42:08.884Z,19.78
2023-05-22T22:44:36.271Z,19.77
2023-05-22T22:47:04.643Z,19.78
2023-05-22T22:49:32.701Z,19.77
2023-05-22T22:52:00.792Z,19.77
2023-05-22T22:54:28.287Z,19.76
2023-05-22T22:56:56.013Z,19.76
2023-05-22T22:59:23.255Z,19.73
2023-05-22T23:01:50.985Z,19.75
2023-05-22T23:04:18.454Z,19.74
2023-05-22T23:06:46.206Z,19.75
2023-05-22T23:09:14.551Z,19.73
2023-05-22T23:11:42.118Z,19.73
2023-05-22T23:14:10.123Z,19.72
2023-05-22T23:16:40.862Z,19.71
2023-05-22T23:19:10.407Z,19.71
2023-05-22T23:21:40.603Z,19.71
2023-05-22T23:24:07.885Z,19.70
2023-05-22T23:26:35.467Z,19.70
2023-05-22T23:29:02.816Z,19.69
2023-05-22T23:31:31.236Z,19.68
2023-05-22T23:33:58.828Z,19.68
2023-05-22T23:36:26.418Z,19.68
2023-05-22T23:38:53.738Z,19.68
2023-05-22T23:41:21.288Z,19.66
2023-05-22T23:43:48.564Z,19.66
2023-05-22T23:46:16.148Z,19.66
2023-05-22T23:48:43.460Z,19.67
2023-05-22T23:51:14.320Z,19.65
2023-05-22T23:53:42.107Z,19.65
2023-05-22T23:56:10.393Z,19.65
2023-05-22T23:58:38.243Z,19.64
